createdAt,value
2019-01-08T00:00:23.840Z,100444.72
2019-01-08T00:03:27.638Z,100428.97
2019-01-08T00:06:31.449Z,100465.52
2019-01-08T00:09:35.321Z,100418.45
2019-01-08T00:12:39.122Z,100414.12
2019-01-08T00:15:43.029Z,100407.48
2019-01-08T00:18:46.819Z,100399.66
2019-01-08T00:21:50.630Z,100379.92
2019-01-08T00:24:54.452Z,100373.91
2019-01-08T00:27:58.285Z,100366.49
2019-01-08T00:31:02.069Z,100345.86
2019-01-08T00:34:05.896Z,100348.84
2019-01-08T00:37:09.722Z,100342.37
2019-01-08T00:40:13.635Z,100323.06
2019-01-08T00:43:17.429Z,100322.09
2019-01-08T00:46:21.254Z,100339.15
2019-01-08T00:49:25.068Z,100327.12
2019-01-08T00:52:28.925Z,100312.94
2019-01-08T00:55:32.732Z,100319.54
2019-01-08T00:58:36.548Z,100313.42
2019-01-08T01:01:40.356Z,100295.77
2019-01-08T01:04:44.157Z,100275.30
2019-01-08T01:07:47.970Z,100277.16
2019-01-08T01:10:51.803Z,100271.20
2019-01-08T01:13:55.600Z,100260.16
2019-01-08T01:16:59.418Z,100243.07
2019-01-08T01:20:03.308Z,100250.16
2019-01-08T01:23:07.203Z,100227.39
2019-01-08T01:26:11.004Z,100219.83
2019-01-08T01:29:14.797Z,100211.40
2019-01-08T01:32:18.614Z,100198.53
2019-01-08T01:35:22.435Z,100184.92
2019-01-08T01:38:26.231Z,100185.25
2019-01-08T01:41:30.188Z,100150.34
2019-01-08T01:44:34.077Z,100152.48
2019-01-08T01:47:37.912Z,100149.63
2019-01-08T01:50:41.711Z,100151.77
2019-01-08T01:53:45.546Z,100126.23
2019-01-08T01:56:49.420Z,100121.41
2019-01-08T01:59:53.241Z,100126.86
2019-01-08T02:02:57.086Z,100101.61
2019-01-08T02:06:00.882Z,100093.23
2019-01-08T02:09:05.979Z,100094.06
2019-01-08T02:12:09.779Z,100082.40
2019-01-08T02:15:13.660Z,100069.78
2019-01-08T02:18:17.461Z,100065.53
2019-01-08T02:21:21.271Z,100060.12
2019-01-08T02:24:25.065Z,100049.38
2019-01-08T02:27:28.871Z,100027.44
2019-01-08T02:30:32.688Z,100026.17
2019-01-08T02:33:36.595Z,100021.86
2019-01-08T02:36:40.404Z,100014.44
2019-01-08T02:39:44.233Z,100001.60
2019-01-08T02:42:48.029Z,99975.42
2019-01-08T02:45:51.817Z,99969.41
2019-01-08T02:48:55.615Z,99973.78
2019-01-08T02:51:59.423Z,99967.27
2019-01-08T02:55:03.217Z,99942.13
2019-01-08T02:58:07.053Z,99939.80
2019-01-08T03:01:10.853Z,99943.32
2019-01-08T03:04:14.673Z,99903.83
2019-01-08T03:07:18.506Z,99896.54
2019-01-08T03:10:22.302Z,99886.55
2019-01-08T03:13:26.105Z,99872.60
2019-01-08T03:16:29.912Z,99869.20
2019-01-08T03:19:33.721Z,99854.27
2019-01-08T03:22:37.544Z,99826.88
2019-01-08T03:25:41.335Z,99838.94
2019-01-08T03:28:45.135Z,99823.52
2019-01-08T03:31:48.954Z,99819.59
2019-01-08T03:34:52.743Z,99791.39
2019-01-08T03:37:56.541Z,99791.90
2019-01-08T03:41:00.339Z,99792.06
2019-01-08T03:44:04.233Z,99772.59
2019-01-08T03:47:08.045Z,99764.98
2019-01-08T03:50:11.998Z,99736.11
2019-01-08T03:53:15.874Z,99749.81
2019-01-08T03:56:19.675Z,99724.75
2019-01-08T03:59:23.493Z,99733.07
2019-01-08T04:02:27.294Z,99711.96
2019-01-08T04:05:31.103Z,99693.49
2019-01-08T04:08:34.963Z,99700.32
2019-01-08T04:11:38.843Z,99697.78
2019-01-08T04:14:42.670Z,99659.19
2019-01-08T04:17:46.497Z,99689.13
2019-01-08T04:20:50.333Z,99653.62
2019-01-08T04:23:54.150Z,99623.80
2019-01-08T04:26:57.968Z,99620.13
2019-01-08T04:30:01.828Z,99632.52
2019-01-08T04:33:05.639Z,99622.15
2019-01-08T04:36:09.500Z,99619.58
2019-01-08T04:39:13.320Z,99615.47
2019-01-08T04:42:17.120Z,99596.63
2019-01-08T04:45:20.933Z,99586.33
2019-01-08T04:48:24.733Z,99582.66
2019-01-08T04:51:28.550Z,99631.09
2019-01-08T04:54:32.375Z,99594.42
2019-01-08T04:57:36.189Z,99577.42
2019-01-08T05:00:40.006Z,99565.95
2019-01-08T05:03:43.829Z,99584.53
2019-01-08T05:06:47.634Z,99573.02
2019-01-08T05:09:51.430Z,99562.45
2019-01-08T05:12:55.241Z,99554.95
2019-01-08T05:15:59.157Z,99556.52
2019-01-08T05:19:02.959Z,99549.03
2019-01-08T05:22:06.849Z,99541.92
2019-01-08T05:25:10.670Z,99548.63
2019-01-08T05:28:14.473Z,99542.44
2019-01-08T05:31:18.286Z,99530.44
2019-01-08T05:34:22.119Z,99521.05
2019-01-08T05:37:25.936Z,99514.00
2019-01-08T05:40:29.747Z,99515.44
2019-01-08T05:43:33.544Z,99518.16
2019-01-08T05:46:37.384Z,99500.31
2019-01-08T05:49:41.178Z,99493.03
2019-01-08T05:52:45.013Z,99503.63
2019-01-08T05:55:48.839Z,99492.63
2019-01-08T05:58:52.617Z,99484.19
2019-01-08T06:01:56.437Z,99497.66
2019-01-08T06:05:00.275Z,99473.63
2019-01-08T06:08:04.082Z,99477.08
2019-01-08T06:11:07.886Z,99466.35
2019-01-08T06:14:11.776Z,99464.40
2019-01-08T06:17:15.562Z,99454.36
2019-01-08T06:20:19.386Z,99453.72
2019-01-08T06:23:23.241Z,99460.31
2019-01-08T06:26:27.027Z,99461.92
2019-01-08T06:29:30.804Z,99459.16
2019-01-08T06:32:34.623Z,99465.77
2019-01-08T06:35:38.428Z,99472.36
2019-01-08T06:38:42.241Z,99488.32
2019-01-08T06:41:46.127Z,99490.91
2019-01-08T06:44:49.946Z,99482.91
2019-01-08T06:47:53.743Z,99501.06
2019-01-08T06:50:57.560Z,99501.62
2019-01-08T06:54:01.374Z,99501.78
2019-01-08T06:57:05.194Z,99515.66
2019-01-08T07:00:10.616Z,99526.08
2019-01-08T07:03:14.434Z,99525.35
2019-01-08T07:06:18.270Z,99535.84
2019-01-08T07:09:22.069Z,99540.86
2019-01-08T07:12:25.902Z,99547.97
2019-01-08T07:15:29.797Z,99572.23
2019-01-08T07:18:33.618Z,99563.77
2019-01-08T07:21:37.403Z,99569.59
2019-01-08T07:24:41.248Z,99579.55
2019-01-08T07:27:45.044Z,99569.59
2019-01-08T07:30:48.887Z,99580.54
2019-01-08T07:33:52.683Z,99570.91
2019-01-08T07:36:56.489Z,99593.66
2019-01-08T07:40:00.292Z,99598.42
2019-01-08T07:43:04.095Z,99602.67
2019-01-08T07:46:07.963Z,99605.72
2019-01-08T07:49:11.938Z,99608.66
2019-01-08T07:52:15.749Z,99625.06
2019-01-08T07:55:19.557Z,99613.09
2019-01-08T07:58:23.354Z,99632.98
2019-01-08T08:01:27.155Z,99635.66
2019-01-08T08:04:31.080Z,99639.06
2019-01-08T08:07:34.874Z,99651.45
2019-01-08T08:10:38.698Z,99654.12
2019-01-08T08:13:42.512Z,99669.69
2019-01-08T08:16:46.314Z,99674.66
2019-01-08T08:19:50.136Z,99676.42
2019-01-08T08:22:53.931Z,99693.23
2019-01-08T08:25:57.731Z,99691.44
2019-01-08T08:29:01.505Z,99694.38
2019-01-08T08:32:05.311Z,99698.23
2019-01-08T08:35:09.278Z,99726.74
2019-01-08T08:38:13.093Z,99710.91
2019-01-08T08:41:16.939Z,99708.17
2019-01-08T08:44:20.727Z,99712.77
2019-01-08T08:47:24.558Z,99725.80
2019-01-08T08:50:28.359Z,99721.97
2019-01-08T08:53:32.147Z,99738.44
2019-01-08T08:56:36.020Z,99755.04
2019-01-08T08:59:39.866Z,99759.34
2019-01-08T09:02:43.631Z,99766.03
2019-01-08T09:05:47.422Z,99767.73
2019-01-08T09:08:51.233Z,99771.12
2019-01-08T09:11:55.039Z,99771.59
2019-01-08T09:14:58.841Z,99795.27
2019-01-08T09:18:02.715Z,99801.45
2019-01-08T09:21:06.525Z,99789.67
2019-01-08T09:24:11.958Z,99802.26
2019-01-08T09:27:15.768Z,99786.13
2019-01-08T09:30:19.591Z,99812.30
2019-01-08T09:33:23.376Z,99812.50
2019-01-08T09:36:27.236Z,99807.19
2019-01-08T09:39:31.008Z,99805.80
2019-01-08T09:42:34.832Z,99841.41
2019-01-08T09:45:38.629Z,99801.53
2019-01-08T09:48:42.442Z,99803.45
2019-01-08T09:51:46.346Z,99819.08
2019-01-08T09:54:50.168Z,99824.40
2019-01-08T09:57:53.998Z,99818.06
2019-01-08T10:00:57.803Z,99834.59
2019-01-08T10:04:01.649Z,99834.76
2019-01-08T10:07:05.441Z,99828.04
2019-01-08T10:10:09.516Z,99831.02
2019-01-08T10:13:13.325Z,99842.80
2019-01-08T10:16:17.148Z,99837.70
2019-01-08T10:19:20.959Z,99855.05
2019-01-08T10:22:24.782Z,99846.88
2019-01-08T10:25:28.606Z,99853.64
2019-01-08T10:28:32.442Z,99863.87
2019-01-08T10:31:36.240Z,99881.12
2019-01-08T10:34:40.068Z,99879.29
2019-01-08T10:37:43.870Z,99864.63
2019-01-08T10:40:47.718Z,99881.65
2019-01-08T10:43:51.539Z,99869.70
2019-01-08T10:46:55.354Z,99870.59
2019-01-08T10:49:59.167Z,99873.55
2019-01-08T10:53:02.984Z,99881.58
2019-01-08T10:56:06.775Z,99887.20
2019-01-08T10:59:10.566Z,99890.90
2019-01-08T11:02:14.443Z,99892.69
2019-01-08T11:05:18.281Z,99896.65
2019-01-08T11:08:22.070Z,99889.29
2019-01-08T11:11:25.864Z,99891.11
2019-01-08T11:14:29.751Z,99889.70
2019-01-08T11:17:33.486Z,99884.78
2019-01-08T11:20:37.336Z,99890.28
2019-01-08T11:23:41.216Z,99891.08
2019-01-08T11:26:45.015Z,99882.28
2019-01-08T11:29:48.808Z,99887.01
2019-01-08T11:32:52.640Z,99887.56
2019-01-08T11:35:56.431Z,99890.67
2019-01-08T11:39:00.415Z,99892.63
2019-01-08T11:42:04.235Z,99903.55
2019-01-08T11:45:09.269Z,99905.48
2019-01-08T11:48:13.066Z,99918.94
2019-01-08T11:51:16.888Z,99918.20
2019-01-08T11:54:20.740Z,99922.86
2019-01-08T11:57:24.575Z,99929.56
2019-01-08T12:00:28.558Z,99933.44
2019-01-08T12:03:32.347Z,99926.11
2019-01-08T12:06:36.148Z,99938.46
2019-01-08T12:09:39.971Z,99931.87
2019-01-08T12:12:43.845Z,99922.02
2019-01-08T12:15:47.640Z,99942.57
2019-01-08T12:18:51.466Z,99937.50
2019-01-08T12:21:55.249Z,99947.63
2019-01-08T12:24:59.165Z,99950.16
2019-01-08T12:28:02.977Z,99969.48
2019-01-08T12:31:06.776Z,99962.75
2019-01-08T12:34:12.225Z,99960.55
2019-01-08T12:37:16.133Z,99961.02
2019-01-08T12:40:19.922Z,99965.92
2019-01-08T12:43:23.726Z,99963.78
2019-01-08T12:46:27.524Z,99970.70
2019-01-08T12:49:31.328Z,99981.45
2019-01-08T12:52:35.125Z,99978.13
2019-01-08T12:55:38.938Z,99973.20
2019-01-08T12:58:42.741Z,99982.27
2019-01-08T13:01:46.545Z,99981.59
2019-01-08T13:04:50.336Z,99978.63
2019-01-08T13:07:54.134Z,99981.94
2019-01-08T13:10:57.955Z,99992.18
2019-01-08T13:14:01.770Z,100008.19
2019-01-08T13:17:11.459Z,100013.39
2019-01-08T13:20:11.128Z,100014.10
2019-01-08T13:23:14.955Z,100021.74
2019-01-08T13:26:18.756Z,100034.42
2019-01-08T13:29:22.560Z,100043.76
2019-01-08T13:32:26.446Z,100046.78
2019-01-08T13:35:30.253Z,100049.49
2019-01-08T13:38:34.180Z,100061.50
2019-01-08T13:41:38.064Z,100053.44
2019-01-08T13:44:41.942Z,100061.64
2019-01-08T13:47:45.730Z,100068.34
2019-01-08T13:50:49.534Z,100075.50
2019-01-08T13:53:53.339Z,100072.62
2019-01-08T13:56:57.146Z,100071.31
2019-01-08T14:00:01.007Z,100078.28
2019-01-08T14:03:04.800Z,100088.98
2019-01-08T14:06:08.585Z,100090.64
2019-01-08T14:09:12.392Z,100092.65
2019-01-08T14:12:16.194Z,100100.41
2019-01-08T14:15:20.065Z,100101.58
2019-01-08T14:18:23.880Z,100101.64
2019-01-08T14:21:27.711Z,100121.10
2019-01-08T14:24:31.530Z,100109.20
2019-01-08T14:27:35.359Z,100112.74
2019-01-08T14:30:39.149Z,100121.94
2019-01-08T14:33:42.962Z,100133.78
2019-01-08T14:36:46.774Z,100132.66
2019-01-08T14:39:50.612Z,100132.37
2019-01-08T14:42:54.398Z,100140.75
2019-01-08T14:45:58.219Z,100147.45
2019-01-08T14:49:02.033Z,100162.87
2019-01-08T14:52:05.839Z,100177.78
2019-01-08T14:55:09.703Z,100169.05
2019-01-08T14:58:13.602Z,100175.14
2019-01-08T15:01:17.425Z,100180.47
2019-01-08T15:04:21.229Z,100178.92
2019-01-08T15:07:25.058Z,100189.97
2019-01-08T15:10:28.855Z,100190.34
2019-01-08T15:13:32.672Z,100189.49
2019-01-08T15:16:36.496Z,100196.64
2019-01-08T15:19:40.287Z,100199.17
2019-01-08T15:22:44.162Z,100204.00
2019-01-08T15:25:48.010Z,100206.27
2019-01-08T15:28:51.767Z,100212.80
2019-01-08T15:31:55.574Z,100213.16
2019-01-08T15:34:59.393Z,100217.58
2019-01-08T15:38:03.211Z,100218.09
2019-01-08T15:41:07.109Z,100212.91
2019-01-08T15:44:15.413Z,100223.42
2019-01-08T15:47:16.445Z,100229.67
2019-01-08T15:50:20.284Z,100227.98
2019-01-08T15:53:24.105Z,100233.29
2019-01-08T15:56:27.927Z,100242.44
2019-01-08T15:59:31.718Z,100253.48
2019-01-08T16:02:35.538Z,100267.51
2019-01-08T16:05:39.328Z,100262.26
2019-01-08T16:08:43.986Z,100254.98
2019-01-08T16:11:47.968Z,100254.31
2019-01-08T16:14:51.787Z,100279.77
2019-01-08T16:17:55.620Z,100279.44
2019-01-08T16:20:59.411Z,100296.33
2019-01-08T16:24:03.238Z,100313.38
2019-01-08T16:27:07.115Z,100305.44
2019-01-08T16:30:11.074Z,100302.06
2019-01-08T16:33:16.215Z,100314.73
2019-01-08T16:36:20.232Z,100320.92
2019-01-08T16:39:24.149Z,100330.97
2019-01-08T16:42:27.894Z,100328.38
2019-01-08T16:45:31.757Z,100330.03
2019-01-08T16:48:35.572Z,100323.59
2019-01-08T16:51:39.400Z,100337.16
2019-01-08T16:54:43.280Z,100336.78
2019-01-08T16:57:47.149Z,100351.31
2019-01-08T17:00:51.511Z,100344.66
2019-01-08T17:03:55.380Z,100344.70
2019-01-08T17:06:59.217Z,100351.40
2019-01-08T17:10:03.448Z,100358.85
2019-01-08T17:13:07.261Z,100361.83
2019-01-08T17:16:11.048Z,100362.37
2019-01-08T17:19:14.866Z,100367.16
2019-01-08T17:22:18.662Z,100358.81
2019-01-08T17:25:22.549Z,100369.83
2019-01-08T17:28:26.321Z,100374.62
2019-01-08T17:31:30.120Z,100380.84
2019-01-08T17:34:33.940Z,100381.69
2019-01-08T17:37:37.812Z,100377.32
2019-01-08T17:40:41.633Z,100377.70
2019-01-08T17:43:45.447Z,100393.40
2019-01-08T17:46:49.254Z,100374.62
2019-01-08T17:49:53.062Z,100382.15
2019-01-08T17:52:56.866Z,100387.37
2019-01-08T17:56:00.731Z,100389.61
2019-01-08T17:59:18.673Z,100399.66
2019-01-08T18:02:22.589Z,100400.58
2019-01-08T18:05:27.024Z,100398.91
2019-01-08T18:08:30.910Z,100406.78
2019-01-08T18:11:34.779Z,100419.87
2019-01-08T18:14:38.577Z,100425.16
2019-01-08T18:17:42.486Z,100417.29
2019-01-08T18:20:46.273Z,100428.19
2019-01-08T18:23:50.086Z,100430.57
2019-01-08T18:26:53.866Z,100433.25
2019-01-08T18:29:57.675Z,100443.76
2019-01-08T18:33:01.450Z,100459.94
2019-01-08T18:36:05.321Z,100455.12
2019-01-08T18:39:09.188Z,100454.23
2019-01-08T18:42:13.023Z,100464.36
2019-01-08T18:45:16.836Z,100471.86
2019-01-08T18:48:20.616Z,100472.76
2019-01-08T18:51:24.440Z,100479.64
2019-01-08T18:54:28.303Z,100492.44
2019-01-08T18:57:32.151Z,100495.48
2019-01-08T19:00:36.017Z,100496.33
2019-01-08T19:03:39.832Z,100510.81
2019-01-08T19:06:43.638Z,100513.50
2019-01-08T19:09:56.823Z,100515.24
2019-01-08T19:13:00.632Z,100513.01
2019-01-08T19:16:04.488Z,100520.39
2019-01-08T19:19:08.288Z,100529.59
2019-01-08T19:22:12.121Z,100519.94
2019-01-08T19:25:15.909Z,100529.94
2019-01-08T19:28:19.732Z,100533.43
2019-01-08T19:31:23.604Z,100535.61
2019-01-08T19:34:27.428Z,100543.47
2019-01-08T19:37:31.256Z,100540.84
2019-01-08T19:40:35.098Z,100544.75
2019-01-08T19:43:38.927Z,100546.03
2019-01-08T19:46:42.734Z,100549.91
2019-01-08T19:49:46.625Z,100552.14
2019-01-08T19:52:50.436Z,100554.39
2019-01-08T19:55:54.277Z,100564.52
2019-01-08T19:58:58.095Z,100564.46
2019-01-08T20:02:02.011Z,100567.11
2019-01-08T20:05:06.030Z,100570.65
2019-01-08T20:08:09.858Z,100566.29
2019-01-08T20:11:13.801Z,100578.09
2019-01-08T20:14:18.744Z,100582.47
2019-01-08T20:17:22.521Z,100586.47
2019-01-08T20:20:26.326Z,100585.97
2019-01-08T20:23:30.131Z,100586.39
2019-01-08T20:26:33.932Z,100599.48
2019-01-08T20:29:37.764Z,100595.98
2019-01-08T20:32:41.590Z,100596.91
2019-01-08T20:35:45.475Z,100589.80
2019-01-08T20:38:49.279Z,100601.19
2019-01-08T20:41:53.252Z,100595.91
2019-01-08T20:44:57.063Z,100609.02
2019-01-08T20:48:00.901Z,100612.54
2019-01-08T20:51:04.786Z,100603.80
2019-01-08T20:54:08.682Z,100616.52
2019-01-08T20:57:12.459Z,100620.43
2019-01-08T21:00:16.279Z,100620.89
2019-01-08T21:03:20.082Z,100618.70
2019-01-08T21:06:23.894Z,100622.63
2019-01-08T21:09:28.301Z,100626.13
2019-01-08T21:12:32.110Z,100634.90
2019-01-08T21:15:35.953Z,100626.58
2019-01-08T21:18:39.735Z,100627.39
2019-01-08T21:21:43.648Z,100641.84
2019-01-08T21:24:47.443Z,100631.83
2019-01-08T21:27:51.242Z,100627.83
2019-01-08T21:30:55.200Z,100638.84
2019-01-08T21:33:59.012Z,100636.17
2019-01-08T21:37:02.814Z,100644.89
2019-01-08T21:40:07.221Z,100642.28
2019-01-08T21:43:11.121Z,100647.09
2019-01-08T21:46:15.104Z,100663.28
2019-01-08T21:49:18.869Z,100653.23
2019-01-08T21:52:22.692Z,100654.52
2019-01-08T21:55:26.571Z,100644.03
2019-01-08T21:58:30.363Z,100651.47
2019-01-08T22:01:34.621Z,100655.36
2019-01-08T22:04:38.509Z,100664.13
2019-01-08T22:07:42.457Z,100667.65
2019-01-08T22:10:46.344Z,100666.77
2019-01-08T22:13:50.208Z,100668.05
2019-01-08T22:16:54.189Z,100675.08
2019-01-08T22:19:58.025Z,100676.83
2019-01-08T22:23:01.814Z,100680.81
2019-01-08T22:26:05.632Z,100679.41
2019-01-08T22:29:09.426Z,100685.59
2019-01-08T22:32:13.231Z,100684.27
2019-01-08T22:35:17.026Z,100698.32
2019-01-08T22:38:20.861Z,100690.42
2019-01-08T22:41:25.100Z,100693.05
2019-01-08T22:44:28.928Z,100697.44
2019-01-08T22:47:32.985Z,100692.22
2019-01-08T22:50:36.879Z,100712.35
2019-01-08T22:53:40.708Z,100699.26
2019-01-08T22:56:44.539Z,100702.28
2019-01-08T22:59:48.357Z,100710.20
2019-01-08T23:02:52.329Z,100712.87
2019-01-08T23:05:56.183Z,100705.42
2019-01-08T23:09:00.097Z,100721.16
2019-01-08T23:12:03.939Z,100717.25
2019-01-08T23:15:08.043Z,100716.35
2019-01-08T23:18:11.985Z,100741.31
2019-01-08T23:21:15.797Z,100733.86
2019-01-08T23:24:19.627Z,100733.47
2019-01-08T23:27:23.512Z,100722.09
2019-01-08T23:30:27.515Z,100735.20
2019-01-08T23:33:31.481Z,100737.83
2019-01-08T23:36:35.443Z,100737.84
2019-01-08T23:39:39.335Z,100747.89
2019-01-08T23:42:43.230Z,100742.67
2019-01-08T23:45:47.091Z,100753.59
2019-01-08T23:48:51.271Z,100758.87
2019-01-08T23:52:04.139Z,100764.98
2019-01-08T23:55:08.104Z,100761.92
2019-01-08T23:58:13.568Z,100781.19
